createdAt,value
2023-09-07T00:00:30.563Z,58.34
2023-09-07T00:01:31.057Z,58.25
2023-09-07T00:02:39.116Z,58.44
2023-09-07T00:03:31.683Z,58.25
2023-09-07T00:04:30.545Z,58.25
2023-09-07T00:05:30.481Z,58.44
2023-09-07T00:06:30.511Z,58.34
2023-09-07T00:07:30.529Z,58.44
2023-09-07T00:08:30.706Z,58.15
2023-09-07T00:09:30.436Z,58.04
2023-09-07T00:10:30.469Z,59.14
2023-09-07T00:11:30.474Z,59.44
2023-09-07T00:12:30.369Z,60.16
2023-09-07T00:13:30.545Z,61.28
2023-09-07T00:14:30.391Z,61.71
2023-09-07T00:15:30.352Z,61.91
2023-09-07T00:16:30.401Z,61.68
2023-09-07T00:17:30.355Z,61.28
2023-09-07T00:18:30.725Z,60.78
2023-09-07T00:19:30.426Z,60.39
2023-09-07T00:20:30.283Z,59.89
2023-09-07T00:21:30.429Z,59.39
2023-09-07T00:22:30.362Z,59.30
2023-09-07T00:23:30.266Z,58.70
2023-09-07T00:24:30.217Z,58.47
2023-09-07T00:25:30.314Z,58.17
2023-09-07T00:26:30.218Z,58.00
2023-09-07T00:27:30.267Z,58.00
2023-09-07T00:28:30.570Z,58.10
2023-09-07T00:29:30.201Z,58.20
2023-09-07T00:30:30.153Z,58.00
2023-09-07T00:31:30.260Z,57.90
2023-09-07T00:32:30.160Z,57.68
2023-09-07T00:33:30.142Z,57.58
2023-09-07T00:34:30.149Z,57.68
2023-09-07T00:35:30.129Z,57.68
2023-09-07T00:36:30.055Z,57.90
2023-09-07T00:37:30.161Z,57.90
2023-09-07T00:38:30.277Z,57.68
2023-09-07T00:39:30.018Z,57.81
2023-09-07T00:40:30.063Z,57.90
2023-09-07T00:41:30.003Z,58.10
2023-09-07T00:42:29.969Z,58.00
2023-09-07T00:43:30.108Z,58.00
2023-09-07T00:44:29.990Z,58.20
2023-09-07T00:45:30.007Z,58.00
2023-09-07T00:46:29.916Z,58.10
2023-09-07T00:47:30.006Z,58.10
2023-09-07T00:48:30.170Z,58.30
2023-09-07T00:49:29.956Z,58.20
2023-09-07T00:50:29.942Z,58.00
2023-09-07T00:51:29.867Z,57.81
2023-09-07T00:52:30.000Z,57.90
2023-09-07T00:53:29.860Z,57.90
2023-09-07T00:54:29.914Z,57.70
2023-09-07T00:55:29.961Z,57.60
2023-09-07T00:56:29.847Z,57.70
2023-09-07T00:57:29.787Z,57.60
2023-09-07T00:58:30.118Z,57.70
2023-09-07T00:59:29.756Z,57.60
2023-09-07T01:00:29.791Z,58.03
2023-09-07T01:01:29.823Z,58.23
2023-09-07T01:02:29.892Z,58.23
2023-09-07T01:03:29.788Z,58.23
2023-09-07T01:04:29.781Z,58.33
2023-09-07T01:05:29.662Z,58.62
2023-09-07T01:06:29.672Z,58.86
2023-09-07T01:07:29.693Z,58.95
2023-09-07T01:08:30.065Z,58.73
2023-09-07T01:09:29.657Z,58.43
2023-09-07T01:10:29.636Z,58.43
2023-09-07T01:11:29.703Z,58.33
2023-09-07T01:12:29.601Z,58.23
2023-09-07T01:13:29.607Z,58.45
2023-09-07T01:14:29.612Z,58.86
2023-09-07T01:15:29.628Z,58.95
2023-09-07T01:16:29.696Z,58.65
2023-09-07T01:17:29.731Z,58.65
2023-09-07T01:18:29.677Z,58.45
2023-09-07T01:19:29.501Z,58.45
2023-09-07T01:20:29.496Z,58.65
2023-09-07T01:21:29.448Z,58.65
2023-09-07T01:22:29.537Z,58.45
2023-09-07T01:23:29.433Z,57.93
2023-09-07T01:24:29.398Z,57.83
2023-09-07T01:25:29.550Z,57.43
2023-09-07T01:26:29.398Z,58.36
2023-09-07T01:27:29.379Z,58.03
2023-09-07T01:28:29.698Z,57.83
2023-09-07T01:29:29.347Z,57.73
2023-09-07T01:30:29.387Z,57.53
2023-09-07T01:31:29.445Z,57.64
2023-09-07T01:32:29.359Z,57.64
2023-09-07T01:33:29.306Z,57.73
2023-09-07T01:34:29.376Z,57.93
2023-09-07T01:35:29.402Z,57.93
2023-09-07T01:36:29.277Z,57.83
2023-09-07T01:37:29.324Z,57.93
2023-09-07T01:38:29.544Z,58.13
2023-09-07T01:39:29.218Z,57.93
2023-09-07T01:40:29.243Z,57.73
2023-09-07T01:41:29.267Z,57.64
2023-09-07T01:42:29.220Z,57.64
2023-09-07T01:43:29.192Z,58.33
2023-09-07T01:44:29.172Z,58.03
2023-09-07T01:45:29.138Z,58.33
2023-09-07T01:46:29.217Z,58.62
2023-09-07T01:47:29.234Z,58.86
2023-09-07T01:48:29.434Z,58.75
2023-09-07T01:49:29.075Z,58.65
2023-09-07T01:50:29.071Z,58.45
2023-09-07T01:51:29.253Z,58.36
2023-09-07T01:52:29.077Z,58.23
2023-09-07T01:53:29.038Z,58.26
2023-09-07T01:54:29.043Z,58.36
2023-09-07T01:55:29.134Z,58.56
2023-09-07T01:56:29.098Z,58.58
2023-09-07T01:57:29.016Z,58.69
2023-09-07T01:58:29.282Z,58.01
2023-09-07T01:59:29.944Z,57.87
2023-09-07T02:00:28.994Z,57.87
2023-09-07T02:01:28.945Z,58.72
2023-09-07T02:02:28.942Z,58.80
2023-09-07T02:03:28.948Z,58.07
2023-09-07T02:04:28.903Z,57.37
2023-09-07T02:05:28.945Z,57.28
2023-09-07T02:06:28.878Z,57.47
2023-09-07T02:07:28.868Z,57.47
2023-09-07T02:08:29.051Z,56.98
2023-09-07T02:09:28.838Z,57.17
2023-09-07T02:10:28.831Z,56.95
2023-09-07T02:11:28.793Z,56.55
2023-09-07T02:12:28.941Z,56.42
2023-09-07T02:13:28.761Z,56.30
2023-09-07T02:14:28.736Z,56.20
2023-09-07T02:15:28.738Z,56.10
2023-09-07T02:16:28.778Z,56.00
2023-09-07T02:17:28.865Z,56.42
2023-09-07T02:18:28.800Z,58.56
2023-09-07T02:19:28.730Z,58.95
2023-09-07T02:20:28.722Z,59.05
2023-09-07T02:21:28.654Z,59.38
2023-09-07T02:22:28.641Z,59.38
2023-09-07T02:23:28.737Z,59.48
2023-09-07T02:24:28.646Z,60.30
2023-09-07T02:25:28.607Z,60.30
2023-09-07T02:26:28.628Z,60.21
2023-09-07T02:27:28.593Z,60.30
2023-09-07T02:28:28.641Z,60.30
2023-09-07T02:29:28.610Z,60.11
2023-09-07T02:30:28.742Z,59.78
2023-09-07T02:31:28.525Z,59.88
2023-09-07T02:32:28.558Z,59.68
2023-09-07T02:33:28.557Z,59.48
2023-09-07T02:34:28.494Z,60.17
2023-09-07T02:35:28.562Z,60.38
2023-09-07T02:36:28.533Z,60.11
2023-09-07T02:37:28.461Z,60.21
2023-09-07T02:38:28.471Z,60.21
2023-09-07T02:39:28.420Z,60.21
2023-09-07T02:40:28.414Z,60.21
2023-09-07T02:41:28.407Z,60.21
2023-09-07T02:42:28.396Z,60.21
2023-09-07T02:43:28.372Z,60.30
2023-09-07T02:44:28.336Z,60.40
2023-09-07T02:45:28.490Z,60.33
2023-09-07T02:46:28.339Z,60.33
2023-09-07T02:47:28.292Z,60.33
2023-09-07T02:48:28.406Z,60.30
2023-09-07T02:49:28.248Z,60.30
2023-09-07T02:50:28.273Z,60.21
2023-09-07T02:51:29.266Z,60.50
2023-09-07T02:52:28.240Z,60.73
2023-09-07T02:53:28.227Z,60.73
2023-09-07T02:54:28.254Z,60.93
2023-09-07T02:55:28.251Z,60.93
2023-09-07T02:56:28.222Z,61.16
2023-09-07T02:57:28.162Z,61.66
2023-09-07T02:58:28.188Z,61.69
2023-09-07T02:59:28.138Z,61.79
2023-09-07T03:00:28.179Z,61.99
2023-09-07T03:01:28.242Z,61.99
2023-09-07T03:02:28.138Z,62.08
2023-09-07T03:03:28.138Z,61.58
2023-09-07T03:04:28.084Z,61.69
2023-09-07T03:05:28.064Z,61.49
2023-09-07T03:06:28.161Z,61.49
2023-09-07T03:07:28.029Z,61.16
2023-09-07T03:08:28.018Z,61.16
2023-09-07T03:09:28.050Z,61.16
2023-09-07T03:10:28.015Z,61.25
2023-09-07T03:11:27.986Z,61.25
2023-09-07T03:12:27.973Z,61.39
2023-09-07T03:13:27.991Z,61.49
2023-09-07T03:14:27.934Z,61.58
2023-09-07T03:15:27.921Z,61.79
2023-09-07T03:16:28.010Z,61.88
2023-09-07T03:17:27.963Z,61.88
2023-09-07T03:18:27.881Z,62.08
2023-09-07T03:19:27.884Z,62.12
2023-09-07T03:20:27.889Z,62.21
2023-09-07T03:21:27.836Z,62.01
2023-09-07T03:22:27.855Z,62.12
2023-09-07T03:23:27.849Z,62.01
2023-09-07T03:24:27.848Z,62.01
2023-09-07T03:25:27.946Z,62.01
2023-09-07T03:26:27.832Z,61.91
2023-09-07T03:27:27.756Z,61.91
2023-09-07T03:28:27.762Z,62.21
2023-09-07T03:29:27.804Z,62.21
2023-09-07T03:30:27.743Z,62.31
2023-09-07T03:31:27.794Z,62.31
2023-09-07T03:32:27.688Z,62.54
2023-09-07T03:33:27.717Z,62.74
2023-09-07T03:34:27.787Z,63.04
2023-09-07T03:35:27.669Z,63.14
2023-09-07T03:36:27.733Z,63.34
2023-09-07T03:37:27.613Z,63.44
2023-09-07T03:38:27.621Z,63.24
2023-09-07T03:39:27.608Z,63.34
2023-09-07T03:40:27.692Z,63.04
2023-09-07T03:41:27.604Z,62.84
2023-09-07T03:42:27.653Z,62.84
2023-09-07T03:43:27.647Z,62.74
2023-09-07T03:44:27.568Z,62.51
2023-09-07T03:45:27.529Z,62.31
2023-09-07T03:46:27.594Z,62.01
2023-09-07T03:47:27.484Z,62.45
2023-09-07T03:48:27.566Z,61.94
2023-09-07T03:49:27.494Z,62.34
2023-09-07T03:50:27.473Z,62.34
2023-09-07T03:51:27.436Z,62.34
2023-09-07T03:52:27.524Z,62.54
2023-09-07T03:53:27.424Z,62.84
2023-09-07T03:54:27.509Z,63.04
2023-09-07T03:55:27.373Z,63.14
2023-09-07T03:56:27.421Z,63.04
2023-09-07T03:57:27.432Z,63.04
2023-09-07T03:58:27.412Z,62.94
2023-09-07T03:59:27.314Z,62.84
2023-09-07T04:00:27.449Z,62.84
2023-09-07T04:01:27.422Z,62.74
2023-09-07T04:02:27.489Z,62.74
2023-09-07T04:03:27.491Z,62.51
2023-09-07T04:04:27.373Z,62.64
2023-09-07T04:05:27.261Z,62.54
2023-09-07T04:06:27.300Z,62.51
2023-09-07T04:07:27.225Z,62.45
2023-09-07T04:08:27.288Z,62.54
2023-09-07T04:09:27.233Z,62.54
2023-09-07T04:10:27.233Z,62.54
2023-09-07T04:11:27.136Z,62.64
2023-09-07T04:12:27.238Z,62.64
2023-09-07T04:13:27.168Z,62.74
2023-09-07T04:14:27.259Z,62.64
2023-09-07T04:15:27.107Z,62.64
2023-09-07T04:16:27.189Z,62.64
2023-09-07T04:17:27.066Z,62.74
2023-09-07T04:18:27.158Z,62.94
2023-09-07T04:19:27.095Z,62.74
2023-09-07T04:20:27.095Z,63.04
2023-09-07T04:21:27.051Z,63.24
2023-09-07T04:22:27.064Z,63.34
2023-09-07T04:23:27.015Z,63.94
2023-09-07T04:24:27.125Z,64.04
2023-09-07T04:25:26.992Z,63.84
2023-09-07T04:26:26.982Z,63.57
2023-09-07T04:27:27.005Z,63.44
2023-09-07T04:28:26.995Z,63.34
2023-09-07T04:29:26.979Z,63.47
2023-09-07T04:30:27.069Z,63.97
2023-09-07T04:31:26.942Z,63.97
2023-09-07T04:32:26.945Z,63.47
2023-09-07T04:33:26.921Z,63.07
2023-09-07T04:34:26.881Z,63.60
2023-09-07T04:35:26.901Z,64.17
2023-09-07T04:36:26.950Z,64.07
2023-09-07T04:37:26.888Z,63.77
2023-09-07T04:38:26.830Z,63.87
2023-09-07T04:39:26.758Z,66.16
2023-09-07T04:40:26.783Z,65.56
2023-09-07T04:41:26.789Z,64.69
2023-09-07T04:42:26.833Z,64.76
2023-09-07T04:43:26.742Z,63.83
2023-09-07T04:44:26.730Z,64.13
2023-09-07T04:45:26.768Z,63.53
2023-09-07T04:46:26.795Z,63.23
2023-09-07T04:47:26.750Z,63.73
2023-09-07T04:48:26.867Z,63.53
2023-09-07T04:49:26.623Z,63.33
2023-09-07T04:50:26.741Z,63.23
2023-09-07T04:51:26.691Z,63.40
2023-09-07T04:52:26.600Z,63.27
2023-09-07T04:53:26.580Z,62.94
2023-09-07T04:54:26.612Z,62.81
2023-09-07T04:55:26.568Z,62.71
2023-09-07T04:56:26.666Z,62.31
2023-09-07T04:57:26.550Z,62.01
2023-09-07T04:58:26.600Z,61.49
2023-09-07T04:59:26.519Z,61.71
2023-09-07T05:00:26.552Z,62.12
2023-09-07T05:01:26.539Z,62.21
2023-09-07T05:02:26.542Z,62.31
2023-09-07T05:03:26.615Z,62.61
2023-09-07T05:04:26.609Z,62.61
2023-09-07T05:05:26.474Z,62.71
2023-09-07T05:06:26.492Z,62.81
2023-09-07T05:07:26.396Z,62.81
2023-09-07T05:08:26.473Z,62.51
2023-09-07T05:09:26.392Z,62.51
2023-09-07T05:10:26.440Z,62.21
2023-09-07T05:11:26.423Z,62.12
2023-09-07T05:12:26.469Z,62.12
2023-09-07T05:13:26.387Z,61.79
2023-09-07T05:14:26.397Z,61.23
2023-09-07T05:15:26.296Z,59.98
2023-09-07T05:16:26.315Z,58.80
2023-09-07T05:17:26.390Z,57.25
2023-09-07T05:18:26.327Z,55.71
2023-09-07T05:19:26.285Z,54.99
2023-09-07T05:20:26.293Z,53.65
2023-09-07T05:21:26.431Z,53.03
2023-09-07T05:22:26.228Z,52.41
2023-09-07T05:23:26.183Z,52.24
2023-09-07T05:24:26.235Z,52.24
2023-09-07T05:25:26.186Z,52.66
2023-09-07T05:26:26.224Z,52.69
2023-09-07T05:27:26.195Z,53.41
2023-09-07T05:28:26.215Z,53.73
2023-09-07T05:29:26.212Z,53.96
2023-09-07T05:30:26.190Z,54.05
2023-09-07T05:31:26.179Z,54.68
2023-09-07T05:32:26.416Z,55.27
2023-09-07T05:33:26.111Z,55.89
2023-09-07T05:34:26.069Z,55.44
2023-09-07T05:35:26.132Z,56.70
2023-09-07T05:36:26.059Z,58.34
2023-09-07T05:37:26.062Z,58.89
2023-09-07T05:38:26.022Z,59.69
2023-09-07T05:39:26.034Z,59.72
2023-09-07T05:40:26.264Z,59.92
2023-09-07T05:41:25.998Z,59.59
2023-09-07T05:42:26.676Z,59.49
2023-09-07T05:44:35.280Z,61.77
2023-09-07T05:45:35.299Z,60.19
2023-09-07T05:46:35.377Z,59.47
2023-09-07T05:47:35.391Z,58.97
2023-09-07T05:49:44.597Z,60.92
2023-09-07T05:50:44.612Z,59.99
2023-09-07T05:51:44.562Z,59.36
2023-09-07T05:52:44.791Z,59.27
2023-09-07T05:53:44.538Z,58.74
2023-09-07T05:54:44.608Z,58.09
2023-09-07T05:55:44.676Z,56.77
2023-09-07T05:56:44.524Z,56.47
2023-09-07T05:57:44.486Z,56.54
2023-09-07T05:58:44.558Z,56.37
2023-09-07T05:59:44.467Z,56.54
2023-09-07T06:00:44.658Z,54.87
2023-09-07T06:01:44.432Z,54.30
2023-09-07T06:02:44.741Z,55.87
2023-09-07T06:04:19.781Z,56.70
2023-09-07T06:04:44.508Z,58.37
2023-09-07T06:05:44.417Z,57.62
2023-09-07T06:06:44.418Z,56.79
2023-09-07T06:07:44.597Z,56.40
2023-09-07T06:08:44.386Z,57.12
2023-09-07T06:09:44.464Z,57.94
2023-09-07T06:10:44.332Z,58.34
2023-09-07T06:11:44.422Z,58.14
2023-09-07T06:12:44.315Z,58.14
2023-09-07T06:13:44.336Z,57.92
2023-09-07T06:14:44.341Z,57.94
2023-09-07T06:15:44.371Z,57.94
2023-09-07T06:16:44.490Z,57.71
2023-09-07T06:17:44.346Z,58.01
2023-09-07T06:18:44.238Z,58.14
2023-09-07T06:19:44.407Z,58.57
2023-09-07T06:20:44.200Z,58.67
2023-09-07T06:21:44.309Z,58.76
2023-09-07T06:22:44.207Z,59.49
2023-09-07T06:23:44.275Z,59.72
2023-09-07T06:24:44.150Z,60.25
2023-09-07T06:25:44.174Z,60.45
2023-09-07T06:26:44.181Z,60.32
2023-09-07T06:27:44.230Z,59.79
2023-09-07T06:28:44.189Z,59.79
2023-09-07T06:29:44.100Z,59.39
2023-09-07T06:30:44.096Z,59.89
2023-09-07T06:31:44.222Z,60.25
2023-09-07T06:32:44.055Z,60.22
2023-09-07T06:33:44.132Z,59.79
2023-09-07T06:34:44.052Z,59.69
2023-09-07T06:35:44.007Z,60.09
2023-09-07T06:36:48.380Z,59.59
2023-09-07T06:37:44.004Z,58.97
2023-09-07T06:38:43.986Z,59.17
2023-09-07T06:39:44.062Z,59.17
2023-09-07T06:40:43.961Z,59.06
2023-09-07T06:41:44.035Z,59.39
2023-09-07T06:42:43.935Z,60.12
2023-09-07T06:43:43.938Z,59.89
2023-09-07T06:44:43.970Z,59.96
2023-09-07T06:45:43.893Z,59.17
2023-09-07T06:46:43.946Z,58.94
2023-09-07T06:47:43.905Z,59.27
2023-09-07T06:48:43.795Z,59.27
2023-09-07T06:49:43.845Z,58.74
2023-09-07T06:50:43.938Z,59.04
2023-09-07T06:51:43.773Z,58.64
2023-09-07T06:52:43.797Z,58.97
2023-09-07T06:53:56.891Z,58.97
2023-09-07T06:54:44.739Z,58.74
2023-09-07T06:55:43.754Z,58.22
2023-09-07T06:56:43.699Z,57.99
2023-09-07T06:57:43.725Z,56.96
2023-09-07T06:58:43.710Z,56.94
2023-09-07T06:59:43.684Z,56.94
2023-09-07T07:00:43.660Z,56.34
2023-09-07T07:01:43.757Z,57.06
2023-09-07T07:02:43.713Z,57.26
2023-09-07T07:03:43.809Z,57.36
2023-09-07T07:04:43.717Z,57.69
2023-09-07T07:05:43.657Z,58.22
2023-09-07T07:06:43.571Z,58.48
2023-09-07T07:07:43.614Z,58.41
2023-09-07T07:08:43.578Z,57.56
2023-09-07T07:09:43.599Z,57.24
2023-09-07T07:10:43.636Z,57.11
2023-09-07T07:11:43.525Z,56.19
2023-09-07T07:12:43.527Z,55.17
2023-09-07T07:13:43.557Z,54.94
2023-09-07T07:14:43.473Z,54.77
2023-09-07T07:15:43.509Z,56.12
2023-09-07T07:16:43.624Z,57.04
2023-09-07T07:17:43.535Z,57.14
2023-09-07T07:18:44.552Z,56.81
2023-09-07T07:19:43.428Z,56.64
2023-09-07T07:20:43.409Z,56.84
2023-09-07T07:21:43.459Z,55.99
2023-09-07T07:22:43.542Z,55.79
2023-09-07T07:23:43.380Z,55.17
2023-09-07T07:24:43.364Z,55.36
2023-09-07T07:25:43.399Z,55.34
2023-09-07T07:26:43.298Z,55.17
2023-09-07T07:27:43.324Z,54.57
2023-09-07T07:28:43.305Z,55.22
2023-09-07T07:29:43.336Z,55.79
2023-09-07T07:30:43.321Z,55.99
2023-09-07T07:31:43.305Z,55.79
2023-09-07T07:32:43.283Z,56.19
2023-09-07T07:33:43.289Z,55.66
2023-09-07T07:34:43.315Z,55.47
2023-09-07T07:35:43.256Z,54.87
2023-09-07T07:36:43.160Z,55.36
2023-09-07T07:37:43.230Z,54.92
2023-09-07T07:38:43.182Z,54.35
2023-09-07T07:39:43.180Z,55.49
2023-09-07T07:40:43.191Z,56.09
2023-09-07T07:41:43.967Z,55.89
2023-09-07T07:42:43.178Z,55.69
2023-09-07T07:43:43.186Z,55.44
2023-09-07T07:44:43.078Z,54.42
2023-09-07T07:45:43.100Z,55.04
2023-09-07T07:46:43.182Z,54.87
2023-09-07T07:47:43.087Z,54.94
2023-09-07T07:48:42.996Z,54.52
2023-09-07T07:49:43.027Z,54.42
2023-09-07T07:50:42.977Z,54.02
2023-09-07T07:51:42.978Z,54.22
2023-09-07T07:52:43.017Z,54.13
2023-09-07T07:53:43.059Z,53.92
2023-09-07T07:54:42.960Z,53.80
2023-09-07T07:55:42.974Z,52.96
2023-09-07T07:56:42.900Z,52.01
2023-09-07T07:57:42.928Z,51.32
2023-09-07T07:58:42.916Z,51.75
2023-09-07T07:59:42.942Z,52.01
2023-09-07T08:00:42.876Z,51.92
2023-09-07T08:01:42.898Z,51.30
2023-09-07T08:02:42.828Z,51.00
2023-09-07T08:03:42.906Z,51.00
2023-09-07T08:04:43.025Z,51.45
2023-09-07T08:05:42.785Z,52.14
2023-09-07T08:06:42.770Z,52.44
2023-09-07T08:07:42.798Z,52.14
2023-09-07T08:08:42.783Z,51.52
2023-09-07T08:09:42.800Z,50.59
2023-09-07T08:10:42.881Z,50.29
2023-09-07T08:11:42.752Z,50.38
2023-09-07T08:12:42.712Z,50.81
2023-09-07T08:13:42.748Z,50.63
2023-09-07T08:14:42.665Z,51.62
2023-09-07T08:15:42.818Z,50.93
2023-09-07T08:16:42.805Z,50.81
2023-09-07T08:17:42.989Z,50.71
2023-09-07T08:18:42.682Z,50.53
2023-09-07T08:19:42.645Z,50.93
2023-09-07T08:20:42.712Z,50.76
2023-09-07T08:21:42.644Z,51.54
2023-09-07T08:22:42.745Z,51.32
2023-09-07T08:23:42.680Z,50.81
2023-09-07T08:24:42.590Z,50.59
2023-09-07T08:25:42.609Z,49.94
2023-09-07T08:26:42.531Z,49.77
2023-09-07T08:27:42.724Z,50.56
2023-09-07T08:28:42.536Z,49.55
2023-09-07T08:29:42.509Z,49.55
2023-09-07T08:30:42.666Z,49.55
2023-09-07T08:31:42.561Z,50.14
2023-09-07T08:32:42.655Z,49.65
2023-09-07T08:33:42.547Z,49.77
2023-09-07T08:34:42.513Z,50.07
2023-09-07T08:35:42.480Z,49.74
2023-09-07T08:36:42.479Z,50.07
2023-09-07T08:37:42.478Z,50.16
2023-09-07T08:38:42.354Z,50.68
2023-09-07T08:39:42.452Z,51.40
2023-09-07T08:40:42.485Z,50.88
2023-09-07T08:41:58.169Z,50.36
2023-09-07T08:42:43.340Z,50.68
2023-09-07T08:43:42.379Z,50.95
2023-09-07T08:44:42.307Z,50.48
2023-09-07T08:45:42.360Z,50.88
2023-09-07T08:46:42.476Z,50.59
2023-09-07T08:47:42.362Z,50.46
2023-09-07T08:48:42.324Z,49.96
2023-09-07T08:49:42.376Z,50.26
2023-09-07T08:50:42.177Z,49.74
2023-09-07T08:51:42.284Z,49.22
2023-09-07T08:52:42.326Z,48.91
2023-09-07T08:53:42.197Z,48.39
2023-09-07T08:54:42.151Z,48.74
2023-09-07T08:55:42.267Z,50.04
2023-09-07T08:56:42.147Z,49.55
2023-09-07T08:57:42.151Z,50.83
2023-09-07T08:58:42.222Z,49.33
2023-09-07T08:59:42.239Z,48.29
2023-09-07T09:00:42.204Z,47.88
2023-09-07T09:01:42.211Z,48.39
2023-09-07T09:02:42.219Z,48.61
2023-09-07T09:03:42.121Z,48.59
2023-09-07T09:04:42.270Z,49.01
2023-09-07T09:05:42.064Z,48.59
2023-09-07T09:06:42.023Z,48.59
2023-09-07T09:07:42.071Z,47.80
2023-09-07T09:08:41.992Z,48.61
2023-09-07T09:09:41.989Z,49.30
2023-09-07T09:10:42.138Z,48.88
2023-09-07T09:11:41.991Z,48.98
2023-09-07T09:12:41.876Z,47.58
2023-09-07T09:13:41.946Z,47.78
2023-09-07T09:14:41.879Z,47.75
2023-09-07T09:15:41.886Z,46.84
2023-09-07T09:16:42.007Z,46.75
2023-09-07T09:17:42.012Z,47.56
2023-09-07T09:18:41.912Z,47.26
2023-09-07T09:19:41.856Z,47.48
2023-09-07T09:20:41.873Z,47.16
2023-09-07T09:21:41.927Z,47.48
2023-09-07T09:22:41.892Z,47.90
2023-09-07T09:23:41.770Z,48.32
2023-09-07T09:24:41.743Z,48.93
2023-09-07T09:25:41.748Z,48.61
2023-09-07T09:26:41.751Z,47.80
2023-09-07T09:27:41.785Z,47.48
2023-09-07T09:28:41.850Z,47.78
2023-09-07T09:29:41.788Z,47.46
2023-09-07T09:30:41.729Z,47.36
2023-09-07T09:31:41.715Z,46.65
2023-09-07T09:32:41.822Z,46.43
2023-09-07T09:33:41.597Z,46.13
2023-09-07T09:34:41.789Z,45.92
2023-09-07T09:35:41.606Z,46.03
2023-09-07T09:36:41.591Z,47.56
2023-09-07T09:37:41.566Z,46.97
2023-09-07T09:38:41.639Z,46.97
2023-09-07T09:39:41.539Z,47.19
2023-09-07T09:40:41.595Z,46.57
2023-09-07T09:41:41.558Z,45.94
2023-09-07T09:42:41.514Z,45.01
2023-09-07T09:43:41.477Z,44.91
2023-09-07T09:44:41.616Z,44.69
2023-09-07T09:45:41.481Z,45.42
2023-09-07T09:46:41.606Z,45.30
2023-09-07T09:47:41.589Z,44.81
2023-09-07T09:48:41.573Z,45.13
2023-09-07T09:49:41.432Z,46.06
2023-09-07T09:50:41.473Z,46.35
2023-09-07T09:51:44.370Z,46.99
2023-09-07T09:52:41.477Z,47.19
2023-09-07T09:53:41.363Z,47.70
2023-09-07T09:54:41.364Z,46.67
2023-09-07T09:55:41.397Z,45.74
2023-09-07T09:56:41.355Z,45.42
2023-09-07T09:57:41.313Z,46.03
2023-09-07T09:58:41.400Z,46.15
2023-09-07T09:59:41.334Z,46.55
2023-09-07T10:00:41.336Z,46.55
2023-09-07T10:01:41.248Z,46.65
2023-09-07T10:02:41.408Z,46.75
2023-09-07T10:03:41.255Z,46.65
2023-09-07T10:04:41.296Z,46.97
2023-09-07T10:05:41.362Z,46.23
2023-09-07T10:06:41.212Z,46.01
2023-09-07T10:07:41.283Z,45.72
2023-09-07T10:08:41.234Z,45.81
2023-09-07T10:09:41.137Z,45.20
2023-09-07T10:10:41.293Z,45.81
2023-09-07T10:11:41.174Z,45.81
2023-09-07T10:12:41.270Z,46.13
2023-09-07T10:13:41.136Z,46.65
2023-09-07T10:14:41.095Z,46.62
2023-09-07T10:15:41.049Z,45.50
2023-09-07T10:16:41.133Z,45.94
2023-09-07T10:17:41.058Z,45.84
2023-09-07T10:18:41.099Z,46.13
2023-09-07T10:19:41.071Z,46.33
2023-09-07T10:20:41.153Z,46.03
2023-09-07T10:21:40.987Z,45.70
2023-09-07T10:22:41.036Z,45.06
2023-09-07T10:23:41.053Z,44.89
2023-09-07T10:24:41.064Z,45.28
2023-09-07T10:25:40.952Z,44.47
2023-09-07T10:26:40.976Z,44.26
2023-09-07T10:27:41.153Z,44.77
2023-09-07T10:28:41.010Z,44.87
2023-09-07T10:29:40.863Z,44.06
2023-09-07T10:30:41.125Z,43.84
2023-09-07T10:31:53.466Z,43.76
2023-09-07T10:32:41.997Z,44.18
2023-09-07T10:33:40.963Z,44.26
2023-09-07T10:34:40.876Z,45.65
2023-09-07T10:35:40.779Z,44.77
2023-09-07T10:36:40.815Z,44.55
2023-09-07T10:37:40.821Z,44.33
2023-09-07T10:38:40.782Z,42.91
2023-09-07T10:39:40.787Z,42.60
2023-09-07T10:40:40.830Z,42.72
2023-09-07T10:41:40.730Z,42.72
2023-09-07T10:42:40.726Z,42.84
2023-09-07T10:43:40.732Z,42.23
2023-09-07T10:44:40.743Z,42.03
2023-09-07T10:45:40.640Z,42.03
2023-09-07T10:46:40.800Z,43.15
2023-09-07T10:47:40.751Z,43.45
2023-09-07T10:48:40.704Z,42.94
2023-09-07T10:49:40.611Z,43.15
2023-09-07T10:50:40.749Z,43.45
2023-09-07T10:51:40.624Z,44.06
2023-09-07T10:52:40.606Z,44.26
2023-09-07T10:53:40.561Z,44.08
2023-09-07T10:54:40.576Z,43.98
2023-09-07T10:55:40.508Z,44.69
2023-09-07T10:56:40.567Z,44.59
2023-09-07T10:57:40.590Z,44.55
2023-09-07T10:58:40.613Z,43.86
2023-09-07T10:59:40.479Z,44.40
2023-09-07T11:00:40.510Z,44.06
2023-09-07T11:01:40.571Z,43.45
2023-09-07T11:02:40.673Z,42.84
2023-09-07T11:03:40.519Z,43.27
2023-09-07T11:04:40.554Z,44.27
2023-09-07T11:05:40.447Z,43.86
2023-09-07T11:06:40.424Z,43.45
2023-09-07T11:07:40.459Z,42.84
2023-09-07T11:08:40.367Z,42.74
2023-09-07T11:09:40.330Z,42.96
2023-09-07T11:10:40.411Z,43.15
2023-09-07T11:11:47.796Z,42.72
2023-09-07T11:12:40.321Z,42.84
2023-09-07T11:13:40.300Z,42.33
2023-09-07T11:14:40.362Z,42.33
2023-09-07T11:15:40.369Z,42.66
2023-09-07T11:16:40.411Z,43.66
2023-09-07T11:17:41.353Z,43.15
2023-09-07T11:18:52.296Z,42.86
2023-09-07T11:19:40.257Z,42.76
2023-09-07T11:20:40.520Z,42.82
2023-09-07T11:21:40.186Z,41.70
2023-09-07T11:22:48.790Z,41.11
2023-09-07T11:23:41.228Z,42.52
2023-09-07T11:24:40.185Z,42.55
2023-09-07T11:25:40.117Z,42.65
2023-09-07T11:26:40.243Z,42.45
2023-09-07T11:27:40.087Z,42.74
2023-09-07T11:28:40.127Z,42.31
2023-09-07T11:29:40.110Z,42.43
2023-09-07T11:30:40.118Z,42.52
2023-09-07T11:31:40.198Z,42.43
2023-09-07T11:32:40.135Z,42.21
2023-09-07T11:33:39.993Z,41.50
2023-09-07T11:34:40.099Z,41.70
2023-09-07T11:35:40.009Z,41.62
2023-09-07T11:36:40.013Z,41.82
2023-09-07T11:37:40.012Z,41.29
2023-09-07T11:38:39.981Z,41.33
2023-09-07T11:39:40.130Z,41.52
2023-09-07T11:40:40.138Z,40.80
2023-09-07T11:41:40.017Z,40.39
2023-09-07T11:42:39.970Z,40.80
2023-09-07T11:43:39.926Z,40.78
2023-09-07T11:44:39.967Z,41.21
2023-09-07T11:45:39.951Z,42.02
2023-09-07T11:46:39.938Z,41.92
2023-09-07T11:47:39.900Z,41.70
2023-09-07T11:48:39.871Z,41.50
2023-09-07T11:49:39.817Z,41.31
2023-09-07T11:50:39.839Z,41.50
2023-09-07T11:51:39.795Z,41.60
2023-09-07T11:52:39.841Z,41.41
2023-09-07T11:53:39.781Z,42.31
2023-09-07T11:54:39.749Z,41.70
2023-09-07T11:55:39.750Z,40.88
2023-09-07T11:56:39.763Z,40.56
2023-09-07T11:57:39.671Z,40.90
2023-09-07T11:58:39.801Z,41.82
2023-09-07T11:59:52.796Z,41.72
2023-09-07T12:00:40.706Z,41.52
2023-09-07T12:01:39.734Z,41.72
2023-09-07T12:02:39.805Z,42.03
2023-09-07T12:03:39.668Z,41.60
2023-09-07T12:04:41.872Z,40.58
2023-09-07T12:05:39.621Z,40.39
2023-09-07T12:06:39.597Z,41.09
2023-09-07T12:07:39.647Z,41.50
2023-09-07T12:08:39.637Z,41.29
2023-09-07T12:09:39.551Z,41.80
2023-09-07T12:10:39.578Z,41.58
2023-09-07T12:11:39.542Z,41.09
2023-09-07T12:12:39.562Z,40.58
2023-09-07T12:13:39.553Z,40.90
2023-09-07T12:14:39.478Z,40.48
2023-09-07T12:15:39.538Z,40.90
2023-09-07T12:16:39.748Z,40.78
2023-09-07T12:17:39.486Z,40.74
2023-09-07T12:18:39.516Z,39.47
2023-09-07T12:19:39.409Z,39.98
2023-09-07T12:20:39.456Z,40.66
2023-09-07T12:21:39.423Z,40.06
2023-09-07T12:22:39.526Z,39.76
2023-09-07T12:23:39.347Z,39.47
2023-09-07T12:24:39.498Z,39.76
2023-09-07T12:25:39.338Z,39.45
2023-09-07T12:26:39.331Z,39.59
2023-09-07T12:27:53.945Z,39.47
2023-09-07T12:28:39.344Z,39.36
2023-09-07T12:29:39.403Z,39.45
2023-09-07T12:30:39.405Z,40.06
2023-09-07T12:31:39.300Z,39.49
2023-09-07T12:32:39.266Z,39.90
2023-09-07T12:33:39.294Z,39.69
2023-09-07T12:34:39.287Z,40.08
2023-09-07T12:35:39.221Z,39.45
2023-09-07T12:36:39.281Z,38.63
2023-09-07T12:37:39.188Z,38.65
2023-09-07T12:38:39.283Z,38.65
2023-09-07T12:39:39.181Z,38.24
2023-09-07T12:40:39.177Z,38.35
2023-09-07T12:41:39.195Z,39.28
2023-09-07T12:42:39.145Z,39.59
2023-09-07T12:43:39.110Z,39.78
2023-09-07T12:44:39.095Z,40.08
2023-09-07T12:45:40.543Z,39.88
2023-09-07T12:46:39.110Z,39.84
2023-09-07T12:47:39.051Z,38.84
2023-09-07T12:48:39.066Z,39.16
2023-09-07T12:49:39.007Z,39.23
2023-09-07T12:50:39.004Z,38.63
2023-09-07T12:51:39.013Z,38.42
2023-09-07T12:52:39.215Z,38.26
2023-09-07T12:53:38.981Z,39.06
2023-09-07T12:54:38.985Z,38.87